Terminal Aerodrome Forecast
Issued by NWS Northern Indiana

Home | Current Version | Previous Version | Text Only | Print | Product List | Glossary On
Versions: 1 2 3 4 5 6 7 8 9 10 11 12 13 14 15 16 17 18 19
000
FTUS43 KIWX 200251 AAA
TAFFWA
TAF AMD
KFWA 200251Z 2003/2024 VRB03KT 3/4SM BR VV003
     FM200500 00000KT 1/4SM FG VV001
     FM201400 VRB03KT 3SM BR SCT015
     FM201500 21005KT P6SM SCT035=

USA.gov is the U.S. government's official web portal to all federal, state and local government web resources and services.